^^
Datos históricos de la estación: Murcia-Puente Tocinos
Diario Informe para Noviembre 9, 2019 Unidades:  Métrico    Ingés   Ambas
Diario Semanal Mensual Anual
  Máxima: Mínima: Promedio:
Temperatura: 19.3 °C 11.9 °C 15 °C
Punto de rocio: 9.4 °C -0.1 °C 2.9 °C
Humedad: 79% 30% 45%
Velocidad viento: 20.1km/h 2.2km/h 10.6km/h
Racha viento: 46.7km/h - -
Viento- - OSO
Presión: 1020.5 hPa 1013.6 hPa -
Precipitación: 1.0 mm    
 
 
Tabla de datos para Noviembre 9, 2019
Hora Temperatura Punto de rocio Presión Viento Velocidad viento Racha viento Humedad Intensidad lluvia(por hora) Nubes
00:04 14.2 °C 0.5 °C 1017.9 hPa SO 10.4 km/h 20.9 km/h 39.2% 0.0 mm
00:09 14.2 °C 0.5 °C 1018.0 hPa SO 10.3 km/h 22.2 km/h 39.3% 0.0 mm
00:14 14.1 °C 0.5 °C 1018.0 hPa SO 11.6 km/h 22.5 km/h 39.6% 0.0 mm
00:19 14 °C 0.6 °C 1018.0 hPa SO 11.9 km/h 27.8 km/h 39.8% 0.0 mm
00:24 14 °C 0.6 °C 1018.0 hPa SO 12.8 km/h 27.8 km/h 39.9% 0.0 mm
00:29 14 °C 0.6 °C 1018.0 hPa SO 13 km/h 24.1 km/h 40% 0.0 mm
00:34 14 °C 0.6 °C 1018.0 hPa SO 13.5 km/h 22.5 km/h 40% 0.0 mm
00:39 14 °C 0.6 °C 1018.3 hPa SO 13.7 km/h 22.5 km/h 40% 0.0 mm
00:44 13.9 °C 0.5 °C 1018.3 hPa SO 12.5 km/h 24.1 km/h 40% 0.0 mm
00:49 13.9 °C 0.5 °C 1018.3 hPa SO 12.2 km/h 24.1 km/h 39.9% 0.0 mm
00:54 13.9 °C 0.5 °C 1018.4 hPa SO 11.3 km/h 20.9 km/h 40% 0.0 mm
00:59 13.9 °C 0.3 °C 1018.4 hPa SO 11.1 km/h 22.2 km/h 39.3% 0.0 mm
01:04 13.9 °C 0.2 °C 1018.4 hPa SO 12.1 km/h 24.5 km/h 39% 0.0 mm
01:09 14 °C 0.2 °C 1018.5 hPa SO 12.2 km/h 24.1 km/h 39% 0.0 mm
01:14 14.2 °C 0.2 °C 1018.5 hPa SO 13.7 km/h 33.3 km/h 38.3% 0.0 mm
01:19 14.3 °C 0.2 °C 1018.5 hPa OSO 14 km/h 33.8 km/h 38% 0.0 mm
01:24 14.4 °C 0.2 °C 1018.5 hPa SO 16 km/h 27.8 km/h 38% 0.0 mm
01:29 14.4 °C 0.1 °C 1018.5 hPa SO 16.4 km/h 27.4 km/h 37.7% 0.0 mm
01:34 14.4 °C -0.1 °C 1018.5 hPa SO 15.8 km/h 24.1 km/h 37% 0.0 mm
01:39 14.4 °C -0.1 °C 1018.5 hPa SO 15.6 km/h 27.8 km/h 37.1% 0.0 mm
01:44 14.3 °C 0.1 °C 1018.5 hPa SO 14.9 km/h 27.4 km/h 38% 0.0 mm
01:49 14.2 °C 0 °C 1018.5 hPa OSO 14.8 km/h 22.5 km/h 38% 0.0 mm
01:54 14 °C 0.1 °C 1018.6 hPa OSO 13.4 km/h 20.9 km/h 38.6% 0.0 mm
01:59 13.8 °C 0.2 °C 1018.6 hPa OSO 13 km/h 19.3 km/h 39.1% 0.0 mm
02:04 13.6 °C 0.2 °C 1018.6 hPa OSO 10.7 km/h 20.1 km/h 40% 0.0 mm
02:09 13.5 °C 0.2 °C 1018.6 hPa OSO 10.3 km/h 20.9 km/h 40% 0.0 mm
02:14 13.5 °C 0.2 °C 1018.6 hPa OSO 11.9 km/h 22.2 km/h 40% 0.0 mm
02:19 13.6 °C 0.2 °C 1018.6 hPa OSO 12.2 km/h 22.5 km/h 40% 0.0 mm
02:24 13.7 °C 0.2 °C 1018.6 hPa OSO 12.2 km/h 22.5 km/h 39.5% 0.0 mm
02:29 13.8 °C 0.1 °C 1018.3 hPa OSO 12.2 km/h 20.9 km/h 39% 0.0 mm
02:34 13.8 °C 0.1 °C 1018.3 hPa OSO 12.9 km/h 22 km/h 39% 0.0 mm
02:39 13.8 °C 0.1 °C 1018.4 hPa OSO 13 km/h 22.5 km/h 39% 0.0 mm
02:44 13.8 °C 0.1 °C 1018.4 hPa OSO 12.4 km/h 24.1 km/h 39% 0.0 mm
02:49 13.8 °C 0.1 °C 1018.4 hPa OSO 12.2 km/h 24.1 km/h 39% 0.0 mm
02:54 13.7 °C 0.2 °C 1018.5 hPa OSO 12.2 km/h 22.5 km/h 39.6% 0.0 mm
02:59 13.5 °C 0.2 °C 1018.5 hPa OSO 12.2 km/h 19.3 km/h 40% 0.0 mm
03:04 13.3 °C 0.1 °C 1018.5 hPa OSO 10.3 km/h 16.4 km/h 40.4% 0.0 mm
03:09 13.2 °C 0.2 °C 1018.5 hPa OSO 10 km/h 16.7 km/h 41% 0.0 mm
03:14 13.1 °C 0.1 °C 1018.5 hPa OSO 10 km/h 17.7 km/h 41% 0.0 mm
03:19 13 °C 0.1 °C 1018.5 hPa OSO 10 km/h 17.2 km/h 41.1% 0.0 mm
03:24 12.9 °C 0.3 °C 1018.6 hPa OSO 10 km/h 17.7 km/h 42% 0.0 mm
03:29 12.8 °C 0.2 °C 1018.6 hPa OSO 10 km/h 19 km/h 42% 0.0 mm
03:34 12.8 °C 0.2 °C 1018.6 hPa OSO 10 km/h 21.7 km/h 42% 0.0 mm
03:39 12.8 °C 0.2 °C 1018.6 hPa OSO 10 km/h 20.9 km/h 42% 0.0 mm
03:44 12.8 °C 0.2 °C 1018.6 hPa OSO 10.2 km/h 19.3 km/h 42% 0.0 mm
03:49 12.7 °C 0.1 °C 1018.6 hPa OSO 10.3 km/h 22.2 km/h 42% 0.0 mm
03:54 12.8 °C 0.2 °C 1018.6 hPa OSO 10.3 km/h 22.5 km/h 42% 0.0 mm
03:59 12.9 °C 0.3 °C 1018.5 hPa OSO 10.3 km/h 24.1 km/h 42% 0.0 mm
04:04 12.9 °C 0.3 °C 1018.5 hPa OSO 12.7 km/h 24.1 km/h 42% 0.0 mm
04:09 12.8 °C 0.4 °C 1018.5 hPa OSO 13 km/h 24.1 km/h 42.6% 0.0 mm
04:14 12.8 °C 0.6 °C 1018.4 hPa OSO 13.6 km/h 22.5 km/h 43% 0.0 mm
04:19 12.9 °C 0.6 °C 1018.4 hPa OSO 13.7 km/h 27.8 km/h 43% 0.0 mm
04:24 13 °C 0.7 °C 1018.4 hPa Oeste 13.9 km/h 27.4 km/h 43% 0.0 mm
04:29 13 °C 0.7 °C 1018.2 hPa Oeste 14 km/h 33.5 km/h 43% 0.0 mm
04:34 13.2 °C 0.8 °C 1018.2 hPa Oeste 13.2 km/h 33.8 km/h 43% 0.0 mm
04:39 13.2 °C 0.9 °C 1018.2 hPa Oeste 13 km/h 29.8 km/h 43% 0.0 mm
04:44 13.3 °C 1 °C 1018.1 hPa Oeste 14.5 km/h 30.6 km/h 43% 0.0 mm
04:49 13.2 °C 0.9 °C 1018.1 hPa Oeste 14.8 km/h 24.1 km/h 43% 0.0 mm
04:54 13.1 °C 0.9 °C 1018.1 hPa OSO 13.4 km/h 26.2 km/h 43.5% 0.0 mm
04:59 13.1 °C 1.1 °C 1018.1 hPa OSO 13 km/h 25.9 km/h 43.9% 0.0 mm
05:04 13 °C 1 °C 1018.1 hPa OSO 14.6 km/h 24.1 km/h 44% 0.0 mm
05:09 12.8 °C 0.9 °C 1018.1 hPa OSO 14.8 km/h 24.1 km/h 44% 0.0 mm
05:14 12.8 °C 1.1 °C 1018.1 hPa OSO 12.5 km/h 24.1 km/h 44.8% 0.0 mm
05:19 12.8 °C 1.2 °C 1018.1 hPa OSO 11.9 km/h 20.9 km/h 45% 0.0 mm
05:24 12.8 °C 1.1 °C 1018.2 hPa Oeste 12.2 km/h 30.6 km/h 45% 0.0 mm
05:29 12.7 °C 1.1 °C 1018.2 hPa Oeste 12.2 km/h 30.6 km/h 45.2% 0.0 mm
05:34 12.7 °C 1.4 °C 1018.2 hPa Oeste 15.4 km/h 27.4 km/h 46% 0.0 mm
05:39 12.7 °C 1.4 °C 1018.4 hPa Oeste 16.1 km/h 25.9 km/h 46% 0.0 mm
05:44 12.8 °C 1.4 °C 1018.4 hPa OSO 16.4 km/h 33.3 km/h 45.8% 0.0 mm
05:49 13.1 °C 1.4 °C 1018.4 hPa OSO 16.4 km/h 33.8 km/h 45% 0.0 mm
05:54 13.2 °C 1.4 °C 1018.4 hPa OSO 16.2 km/h 29.6 km/h 44.5% 0.0 mm
05:59 13.4 °C 1.4 °C 1018.4 hPa OSO 16.1 km/h 29.8 km/h 44% 0.0 mm
06:04 13.4 °C 1.4 °C 1018.4 hPa OSO 18 km/h 30.6 km/h 44% 0.0 mm
06:09 13.4 °C 1.4 °C 1018.6 hPa OSO 18.4 km/h 31.5 km/h 44% 0.0 mm
06:14 13.4 °C 1.4 °C 1018.6 hPa OSO 18.4 km/h 33.5 km/h 44% 0.0 mm
06:19 13.3 °C 1.3 °C 1018.6 hPa Oeste 18.4 km/h 33.8 km/h 44% 0.0 mm
06:24 13.2 °C 1.4 °C 1018.8 hPa OSO 16.8 km/h 36.2 km/h 44.7% 0.0 mm
06:29 13.2 °C 1.5 °C 1018.8 hPa OSO 16.4 km/h 38.9 km/h 45% 0.0 mm
06:34 13.1 °C 1.5 °C 1018.8 hPa OSO 19.4 km/h 38.6 km/h 45% 0.0 mm
06:39 12.9 °C 1.3 °C 1018.8 hPa OSO 20.1 km/h 39.6 km/h 45% 0.0 mm
06:44 12.9 °C 1.2 °C 1018.8 hPa OSO 16.8 km/h 40.2 km/h 45% 0.0 mm
06:49 12.9 °C 1.5 °C 1018.8 hPa OSO 16.1 km/h 35.4 km/h 45.7% 0.0 mm
06:54 12.9 °C 1.5 °C 1019.0 hPa OSO 17 km/h 35.4 km/h 46% 0.0 mm
06:59 12.9 °C 1.5 °C 1019.0 hPa Oeste 17.2 km/h 35.2 km/h 46% 0.0 mm
07:04 12.8 °C 1.5 °C 1019.0 hPa Oeste 16.5 km/h 35.4 km/h 46% 0.0 mm
07:09 12.8 °C 1.7 °C 1019.1 hPa OSO 16.4 km/h 46 km/h 46.6% 0.0 mm
07:14 13 °C 1.6 °C 1019.1 hPa OSO 16.4 km/h 46.7 km/h 46% 0.0 mm
07:19 13.1 °C 1.5 °C 1019.1 hPa OSO 16.4 km/h 37 km/h 45.3% 0.0 mm
07:24 13.1 °C 1.7 °C 1019.2 hPa Oeste 17.1 km/h 29 km/h 46% 0.0 mm
07:29 12.9 °C 1.7 °C 1019.2 hPa ONO 17.2 km/h 22.5 km/h 46.7% 0.0 mm
07:34 12.5 °C 1.7 °C 1019.2 hPa ONO 12.3 km/h 19.8 km/h 47.8% 0.0 mm
07:39 12.3 °C 1.8 °C 1019.3 hPa ONO 11.1 km/h 20.9 km/h 48.9% 0.0 mm
07:44 12.2 °C 1.7 °C 1019.3 hPa ONO 11.1 km/h 19.3 km/h 49% 0.0 mm
07:49 12.1 °C 2 °C 1019.3 hPa ONO 11.1 km/h 13 km/h 50% 0.0 mm
07:54 12 °C 1.9 °C 1019.6 hPa ONO 7.7 km/h 13 km/h 50% 0.0 mm
07:59 12 °C 1.9 °C 1019.6 hPa Oeste 6.9 km/h 12.9 km/h 50% 0.0 mm
08:04 11.9 °C 1.8 °C 1019.6 hPa Oeste 8.2 km/h 16.7 km/h 50% 0.0 mm
08:09 12.1 °C 2 °C 1019.6 hPa ONO 8.4 km/h 16.1 km/h 50% 0.0 mm
08:14 12.2 °C 2.1 °C 1019.6 hPa ONO 8.6 km/h 15.6 km/h 50% 0.0 mm
08:19 12.3 °C 2.1 °C 1019.6 hPa Oeste 8.7 km/h 19 km/h 49.9% 0.0 mm
08:24 12.3 °C 2.1 °C 1019.7 hPa Oeste 9.3 km/h 20.4 km/h 49.8% 0.0 mm
08:29 12.5 °C 2.1 °C 1019.7 hPa OSO 9.5 km/h 22.5 km/h 49.1% 0.0 mm
08:34 12.7 °C 2.2 °C 1019.7 hPa Oeste 11.5 km/h 22.5 km/h 48.9% 0.0 mm
08:39 12.8 °C 2.2 °C 1019.9 hPa OSO 11.9 km/h 22.5 km/h 48.4% 0.0 mm
08:44 12.8 °C 2.2 °C 1019.9 hPa OSO 11.9 km/h 22.5 km/h 48.5% 0.0 mm
08:49 12.7 °C 2.2 °C 1019.9 hPa OSO 11.9 km/h 16.7 km/h 49% 0.0 mm
08:54 12.7 °C 2.2 °C 1020.0 hPa OSO 10.3 km/h 22.2 km/h 48.7% 0.0 mm
08:59 12.8 °C 2.2 °C 1020.0 hPa OSO 10 km/h 22.5 km/h 48.6% 0.0 mm
09:04 12.9 °C 2.2 °C 1020.0 hPa OSO 11.6 km/h 22.5 km/h 48% 0.0 mm
09:09 12.9 °C 2.2 °C 1020.1 hPa OSO 11.9 km/h 22.5 km/h 48% 0.0 mm
09:14 12.9 °C 2.2 °C 1020.1 hPa SO 9.9 km/h 17.7 km/h 48% 0.0 mm
09:19 12.9 °C 2.2 °C 1020.1 hPa SO 9.5 km/h 13 km/h 48% 0.0 mm
09:24 12.9 °C 2.2 °C 1020.4 hPa SO 7 km/h 12.9 km/h 48% 0.0 mm
09:29 13.1 °C 2.1 °C 1020.4 hPa SSO 6.5 km/h 13.7 km/h 47.4% 0.0 mm
09:34 13.1 °C 2.1 °C 1020.4 hPa SO 6.8 km/h 18.5 km/h 47% 0.0 mm
09:39 13.2 °C 2.1 °C 1020.5 hPa SO 6.9 km/h 19.3 km/h 47% 0.0 mm
09:44 13.2 °C 2.1 °C 1020.5 hPa Sur 7.5 km/h 16.1 km/h 47% 0.0 mm
09:49 13.2 °C 2.1 °C 1020.5 hPa SSO 7.6 km/h 16.7 km/h 47% 0.0 mm
09:54 13.2 °C 2.2 °C 1020.5 hPa SSO 9.5 km/h 16.1 km/h 47.1% 0.0 mm
09:59 13.2 °C 2.2 °C 1020.4 hPa OSO 10 km/h 13 km/h 47.3% 0.0 mm
10:04 13.3 °C 2.2 °C 1020.4 hPa SO 6.4 km/h 14.8 km/h 47% 0.0 mm
10:09 13.5 °C 2.2 °C 1020.4 hPa OSO 5.8 km/h 16.7 km/h 46.3% 0.0 mm
10:14 13.7 °C 2 °C 1020.2 hPa OSO 8.2 km/h 20.4 km/h 45.1% 0.0 mm
10:19 13.8 °C 2.2 °C 1020.2 hPa OSO 8.7 km/h 20.9 km/h 45.3% 0.0 mm
10:24 13.9 °C 2.2 °C 1020.2 hPa OSO 10.7 km/h 22.2 km/h 45% 0.0 mm
10:29 14 °C 2.4 °C 1020.2 hPa OSO 11.1 km/h 22.5 km/h 45.4% 0.0 mm
10:34 14.1 °C 2.4 °C 1020.2 hPa Oeste 9.8 km/h 14.5 km/h 45.1% 0.0 mm
10:39 14.3 °C 2.4 °C 1020.2 hPa Oeste 9.5 km/h 20.9 km/h 44.5% 0.0 mm
10:44 14.5 °C 2.1 °C 1020.2 hPa Oeste 9.9 km/h 31.5 km/h 43.3% 0.0 mm
10:49 14.7 °C 2.2 °C 1020.2 hPa ONO 10 km/h 32.2 km/h 43% 0.0 mm
10:54 14.8 °C 2 °C 1020.2 hPa ONO 15.3 km/h 32.2 km/h 42% 0.0 mm
10:59 14.9 °C 2.1 °C 1020.1 hPa ONO 16.4 km/h 32.2 km/h 42% 0.0 mm
11:04 15.1 °C 2.3 °C 1020.1 hPa Oeste 15 km/h 27.4 km/h 42% 0.0 mm
11:09 15.2 °C 1.9 °C 1020.1 hPa OSO 14.8 km/h 29.6 km/h 40.5% 0.0 mm
11:14 15.2 °C 1.7 °C 1020.1 hPa OSO 12.7 km/h 29 km/h 40% 0.0 mm
11:19 15.3 °C 1.7 °C 1020.1 hPa Oeste 12.2 km/h 25.9 km/h 40% 0.0 mm
11:24 15.4 °C 1.7 °C 1020.1 hPa Oeste 13.7 km/h 24.1 km/h 39.7% 0.0 mm
11:29 15.4 °C 1.8 °C 1019.9 hPa Oeste 14 km/h 24.1 km/h 39.7% 0.0 mm
11:34 15.6 °C 1.9 °C 1019.9 hPa Oeste 11.6 km/h 24.5 km/h 39.5% 0.0 mm
11:39 15.6 °C 1.7 °C 1019.9 hPa ONO 11.1 km/h 27.8 km/h 39% 0.0 mm
11:44 15.6 °C 1.7 °C 1019.8 hPa Oeste 13.2 km/h 27.4 km/h 39% 0.0 mm
11:49 15.7 °C 1.7 °C 1019.8 hPa OSO 13.7 km/h 25.7 km/h 39% 0.0 mm
11:54 15.8 °C 1.5 °C 1019.8 hPa OSO 12.5 km/h 22.5 km/h 38% 0.0 mm
11:59 15.9 °C 1.6 °C 1019.6 hPa Oeste 12.2 km/h 28.2 km/h 38.1% 0.0 mm
12:04 15.9 °C 1.6 °C 1019.6 hPa ONO 13.4 km/h 27.4 km/h 38% 0.0 mm
12:09 16.1 °C 1.6 °C 1019.6 hPa Oeste 13.7 km/h 24.1 km/h 37.6% 0.0 mm
12:14 16.2 °C 1.5 °C 1019.4 hPa Oeste 11 km/h 27.8 km/h 37.1% 0.0 mm
12:19 16.3 °C 1.6 °C 1019.4 hPa OSO 10.3 km/h 27.8 km/h 37% 0.0 mm
12:24 16.4 °C 1.7 °C 1019.4 hPa OSO 11.9 km/h 24.5 km/h 37% 0.0 mm
12:29 16.6 °C 1.5 °C 1019.2 hPa Oeste 12.2 km/h 26.2 km/h 36.2% 0.0 mm
12:34 16.7 °C 1.6 °C 1019.2 hPa Oeste 12.2 km/h 25.7 km/h 36.1% 0.0 mm
12:39 16.8 °C 1.6 °C 1019.2 hPa Oeste 12.2 km/h 24.1 km/h 36% 0.0 mm
12:44 16.9 °C 1.5 °C 1019.0 hPa ONO 12.2 km/h 22.2 km/h 35.5% 0.0 mm
12:49 16.9 °C 1.5 °C 1019.0 hPa ONO 12.2 km/h 22.5 km/h 35.4% 0.0 mm
12:54 16.9 °C 1.5 °C 1019.0 hPa Oeste 12.2 km/h 24.1 km/h 35.4% 0.0 mm
12:59 16.9 °C 1.5 °C 1018.7 hPa Oeste 12.2 km/h 24.1 km/h 35.5% 0.0 mm
13:04 16.9 °C 1.6 °C 1018.7 hPa ONO 13.5 km/h 23.7 km/h 35.6% 0.0 mm
13:09 17.1 °C 1.5 °C 1018.7 hPa Oeste 13.7 km/h 24.5 km/h 35.1% 0.0 mm
13:14 17.2 °C 1.6 °C 1018.5 hPa Oeste 12.5 km/h 24.1 km/h 34.9% 0.0 mm
13:19 17.3 °C 1.6 °C 1018.5 hPa Oeste 12.2 km/h 22.5 km/h 34.8% 0.0 mm
13:24 17.5 °C 1.6 °C 1018.5 hPa OSO 11.3 km/h 16.7 km/h 34.5% 0.0 mm
13:29 17.7 °C 1.8 °C 1018.2 hPa ONO 11.1 km/h 20.4 km/h 34.4% 0.0 mm
13:34 17.7 °C 1.6 °C 1018.2 hPa Oeste 10.2 km/h 20.9 km/h 33.9% 0.0 mm
13:39 17.7 °C 1.5 °C 1018.2 hPa ONO 10 km/h 20.9 km/h 33.7% 0.0 mm
13:44 17.8 °C 1.4 °C 1017.9 hPa ONO 10 km/h 20.9 km/h 33.2% 0.0 mm
13:49 17.8 °C 1.3 °C 1017.9 hPa ONO 10 km/h 16.1 km/h 33.1% 0.0 mm
13:54 17.8 °C 1.3 °C 1017.9 hPa Oeste 7.5 km/h 12.9 km/h 33% 0.0 mm
13:59 17.9 °C 1.4 °C 1017.5 hPa ONO 6.9 km/h 9.7 km/h 33% 0.0 mm
14:04 17.9 °C 1.4 °C 1017.5 hPa Oeste 5 km/h 13.7 km/h 33.1% 0.0 mm
14:09 18.1 °C 1.5 °C 1017.5 hPa SSO 4.7 km/h 14.8 km/h 33% 0.0 mm
14:14 18.2 °C 1.5 °C 1017.1 hPa SO 7 km/h 20.4 km/h 32.8% 0.0 mm
14:19 18.2 °C 1.6 °C 1017.1 hPa OSO 7.6 km/h 20.9 km/h 32.8% 0.0 mm
14:24 18.3 °C 1.7 °C 1017.1 hPa OSO 8.2 km/h 17.7 km/h 33% 0.0 mm
14:29 18.2 °C 1.7 °C 1016.9 hPa SO 8.4 km/h 16.7 km/h 33% 0.0 mm
14:34 18.3 °C 2.2 °C 1016.9 hPa SSO 8.4 km/h 16.1 km/h 33.9% 0.0 mm
14:39 18.6 °C 2.1 °C 1016.9 hPa SSO 8.4 km/h 18.5 km/h 33.2% 0.0 mm
14:44 18.7 °C 2.1 °C 1016.8 hPa SSO 9.7 km/h 19.3 km/h 33% 0.0 mm
14:49 18.7 °C 2 °C 1016.8 hPa SSO 10 km/h 22.5 km/h 32.9% 0.0 mm
14:54 18.6 °C 1.8 °C 1016.8 hPa SSO 10 km/h 22.5 km/h 32.6% 0.0 mm
14:59 18.7 °C 1.7 °C 1016.6 hPa Sur 10 km/h 20.9 km/h 32.3% 0.0 mm
15:04 18.7 °C 1.8 °C 1016.6 hPa Sur 8.9 km/h 20.4 km/h 32.3% 0.0 mm
15:09 18.7 °C 1.6 °C 1016.6 hPa SSO 8.7 km/h 20.9 km/h 31.8% 0.0 mm
15:14 18.7 °C 1.7 °C 1016.4 hPa Sur 11.6 km/h 19.3 km/h 32% 0.0 mm
15:19 18.8 °C 1.5 °C 1016.4 hPa Sur 12.2 km/h 20.4 km/h 31.4% 0.0 mm
15:24 18.9 °C 1.4 °C 1016.4 hPa SSO 11.3 km/h 20.9 km/h 31% 0.0 mm
15:29 19.1 °C 1.5 °C 1016.2 hPa SSE 11.1 km/h 17.7 km/h 30.8% 0.0 mm
15:34 19.2 °C 1.2 °C 1016.2 hPa SSO 10.2 km/h 18.5 km/h 30% 0.0 mm
15:39 19.3 °C 1.3 °C 1016.2 hPa SSO 10 km/h 19.3 km/h 30% 0.0 mm
15:44 19.3 °C 1.3 °C 1016.2 hPa SO 8.6 km/h 14.5 km/h 30% 0.0 mm
15:49 19.3 °C 1.3 °C 1016.2 hPa SSO 8.4 km/h 13 km/h 30% 0.0 mm
15:54 19.3 °C 1.3 °C 1016.2 hPa SO 7.7 km/h 13.7 km/h 30% 0.0 mm
15:59 19.3 °C 1.3 °C 1016.0 hPa OSO 7.6 km/h 14.5 km/h 30% 0.0 mm
16:04 19.3 °C 1.3 °C 1016.0 hPa SSO 7.6 km/h 14.8 km/h 30% 0.0 mm
16:09 19.1 °C 1.2 °C 1016.0 hPa SSO 7.6 km/h 14.5 km/h 30.2% 0.0 mm
16:14 19.1 °C 1.2 °C 1015.7 hPa SSE 7.6 km/h 13 km/h 30.2% 0.0 mm
16:19 19.1 °C 1.1 °C 1015.7 hPa SE 7.6 km/h 12.9 km/h 30% 0.0 mm
16:24 19 °C 1.4 °C 1015.7 hPa Sur 7.6 km/h 11.9 km/h 30.9% 0.0 mm
16:29 19 °C 1.5 °C 1015.7 hPa SE 7.6 km/h 11.3 km/h 30.9% 0.0 mm
16:34 19.1 °C 1.6 °C 1015.7 hPa SE 7 km/h 11.3 km/h 31% 0.0 mm
16:39 19.1 °C 1.6 °C 1015.7 hPa SSE 6.9 km/h 18.3 km/h 31% 0.0 mm
16:44 18.9 °C 1.4 °C 1015.6 hPa SSE 8.1 km/h 20.4 km/h 31% 0.0 mm
16:49 18.7 °C 1.5 °C 1015.6 hPa SSE 8.4 km/h 20.9 km/h 31.7% 0.0 mm
16:54 18.6 °C 1.7 °C 1015.6 hPa SSE 11.5 km/h 19.3 km/h 32.3% 0.0 mm
16:59 18.4 °C 2.7 °C 1015.5 hPa SSE 12.2 km/h 22.2 km/h 35.2% 0.0 mm
17:04 18.2 °C 3.9 °C 1015.5 hPa SSE 13.5 km/h 29.6 km/h 38.7% 0.0 mm
17:09 18.1 °C 4.3 °C 1015.5 hPa Sur 13.7 km/h 29 km/h 40% 0.0 mm
17:14 17.9 °C 4.1 °C 1015.3 hPa Sur 15.7 km/h 25.7 km/h 40% 0.0 mm
17:19 17.9 °C 4.1 °C 1015.3 hPa SSE 16.1 km/h 22.5 km/h 40% 0.0 mm
17:24 17.8 °C 3.8 °C 1015.3 hPa SSE 12.9 km/h 24.5 km/h 39.4% 0.0 mm
17:29 17.6 °C 3.5 °C 1015.2 hPa Sur 12.2 km/h 24.1 km/h 39% 0.0 mm
17:34 17.6 °C 3.8 °C 1015.2 hPa SSE 14.4 km/h 24.1 km/h 39.9% 0.0 mm
17:39 17.4 °C 3.9 °C 1015.2 hPa Sur 14.8 km/h 24.1 km/h 40.7% 0.0 mm
17:44 17.3 °C 4.3 °C 1015.2 hPa Sur 14.1 km/h 22.5 km/h 42% 0.0 mm
17:49 17.2 °C 4.7 °C 1015.2 hPa Sur 14 km/h 20.9 km/h 43.6% 0.0 mm
17:54 17.1 °C 5.1 °C 1015.3 hPa Sur 12.6 km/h 22.2 km/h 45.2% 0.0 mm
17:59 16.9 °C 5.5 °C 1015.3 hPa Sur 12.2 km/h 22.5 km/h 46.9% 0.0 mm
18:04 16.8 °C 5.8 °C 1015.3 hPa Sur 12.9 km/h 20.9 km/h 48% 0.0 mm
18:09 16.7 °C 6 °C 1015.3 hPa Sur 13 km/h 20.9 km/h 49.2% 0.0 mm
18:14 16.6 °C 6.1 °C 1015.2 hPa Sur 12.1 km/h 22.2 km/h 50% 0.0 mm
18:19 16.5 °C 6.2 °C 1015.2 hPa Sur 11.9 km/h 22.5 km/h 50.8% 0.0 mm
18:24 16.4 °C 6.2 °C 1015.2 hPa Sur 12.8 km/h 20.9 km/h 51% 0.0 mm
18:29 16.4 °C 6.2 °C 1015.1 hPa Sur 13 km/h 19.3 km/h 51% 0.0 mm
18:34 16.4 °C 6.2 °C 1015.1 hPa Sur 11.5 km/h 17.7 km/h 51% 0.0 mm
18:39 16.4 °C 6.4 °C 1015.3 hPa Sur 11.1 km/h 16.7 km/h 51.5% 0.0 mm
18:44 16.4 °C 6.3 °C 1015.3 hPa Sur 10.4 km/h 16.1 km/h 51.3% 0.0 mm
18:49 16.3 °C 6.2 °C 1015.3 hPa Sur 10.3 km/h 14.8 km/h 51.1% 0.0 mm
18:54 16.3 °C 6.1 °C 1015.3 hPa Sur 9.6 km/h 14.5 km/h 51% 0.0 mm
18:59 16.3 °C 6.1 °C 1015.1 hPa SSO 9.5 km/h 11.3 km/h 51% 0.0 mm
19:04 16.3 °C 6.1 °C 1015.1 hPa SSO 6.9 km/h 9.7 km/h 51% 0.0 mm
19:09 16.3 °C 6.1 °C 1015.2 hPa SSO 6.5 km/h 9.3 km/h 51% 0.0 mm
19:14 16.3 °C 6.2 °C 1015.2 hPa Oeste 5 km/h 9.7 km/h 51.2% 0.0 mm
19:19 16.1 °C 6.4 °C 1015.2 hPa North 4.7 km/h 9.7 km/h 52.6% 0.0 mm
19:24 15.8 °C 6.5 °C 1015.4 hPa North 4.7 km/h 8 km/h 53.8% 0.0 mm
19:29 15.7 °C 6.4 °C 1015.4 hPa North 4.7 km/h 5.8 km/h 54.2% 0.0 mm
19:34 15.5 °C 6.5 °C 1015.4 hPa NNO 3.5 km/h 8.4 km/h 55% 0.0 mm
19:39 15.3 °C 6.3 °C 1015.6 hPa NO 3.2 km/h 8.4 km/h 55% 0.0 mm
19:44 15.2 °C 6.5 °C 1015.6 hPa ONO 4.4 km/h 8 km/h 55.9% 0.0 mm
19:49 15.2 °C 6.5 °C 1015.6 hPa OSO 4.7 km/h 15.6 km/h 56% 0.0 mm
19:54 15.3 °C 6.6 °C 1015.8 hPa SO 5.6 km/h 16.1 km/h 56% 0.0 mm
19:59 15.6 °C 6.9 °C 1015.8 hPa OSO 5.8 km/h 17.2 km/h 56% 0.0 mm
20:04 15.7 °C 6.9 °C 1015.8 hPa Oeste 8 km/h 17.7 km/h 56% 0.0 mm
20:09 15.8 °C 7 °C 1016.0 hPa OSO 8.4 km/h 14.5 km/h 56% 0.0 mm
20:14 15.8 °C 7.1 °C 1016.0 hPa Oeste 6.7 km/h 11.9 km/h 56% 0.0 mm
20:19 15.8 °C 7.1 °C 1016.0 hPa ONO 6.5 km/h 11.9 km/h 56% 0.0 mm
20:24 15.8 °C 7.1 °C 1016.0 hPa ONO 5.3 km/h 11.3 km/h 56% 0.0 mm
20:29 15.8 °C 7.1 °C 1015.8 hPa SO 5 km/h 8 km/h 56% 0.0 mm
20:34 15.7 °C 7.2 °C 1015.8 hPa Oeste 3.5 km/h 9.3 km/h 56.7% 0.0 mm
20:39 15.7 °C 7.2 °C 1015.8 hPa Oeste 3.2 km/h 9.7 km/h 57% 0.0 mm
20:44 15.7 °C 7.2 °C 1015.7 hPa OSO 4.4 km/h 10 km/h 57% 0.0 mm
20:49 15.7 °C 7.2 °C 1015.7 hPa SO 4.7 km/h 9.7 km/h 56.9% 0.0 mm
20:54 15.7 °C 6.9 °C 1015.7 hPa OSO 5.6 km/h 10 km/h 55.8% 0.0 mm
20:59 15.8 °C 6.1 °C 1015.6 hPa Oeste 5.8 km/h 17.2 km/h 52.5% 0.0 mm
21:04 16 °C 5.7 °C 1015.6 hPa Oeste 7.3 km/h 17.7 km/h 50.4% 0.0 mm
21:09 16.1 °C 5.3 °C 1015.6 hPa Oeste 7.6 km/h 16.7 km/h 48.7% 0.0 mm
21:14 16.2 °C 4.7 °C 1015.5 hPa Oeste 9.2 km/h 28.2 km/h 46.5% 0.0 mm
21:19 16.3 °C 4.8 °C 1015.5 hPa Oeste 9.5 km/h 29.6 km/h 46.4% 0.0 mm
21:24 16.2 °C 5.3 °C 1015.5 hPa OSO 14.5 km/h 29.6 km/h 48.7% 0.0 mm
21:29 15.9 °C 5.7 °C 1015.4 hPa OSO 15.6 km/h 22.5 km/h 51% 0.0 mm
21:34 15.7 °C 6.1 °C 1015.4 hPa SO 11.9 km/h 19.3 km/h 53% 0.0 mm
21:39 15.5 °C 6.4 °C 1015.4 hPa SO 11.1 km/h 19.3 km/h 54.6% 0.0 mm
21:44 15.2 °C 6.8 °C 1015.4 hPa SO 9.1 km/h 23.7 km/h 57.3% 0.0 mm
21:49 14.9 °C 7.1 °C 1015.4 hPa OSO 8.7 km/h 24.1 km/h 59.8% 0.5 mm
21:54 14.6 °C 7.5 °C 1015.4 hPa SO 10 km/h 20.9 km/h 62.3% 0.5 mm
21:59 14.3 °C 7.9 °C 1015.1 hPa SO 10.3 km/h 11.3 km/h 65.1% 0.5 mm
22:04 14.1 °C 7.9 °C 1015.1 hPa SO 7.4 km/h 14.8 km/h 66.3% 0.5 mm
22:09 14 °C 8 °C 1015.1 hPa SO 6.9 km/h 14.5 km/h 67.2% 0.5 mm
22:14 13.9 °C 7.9 °C 1014.9 hPa SSO 7.5 km/h 13 km/h 67% 0.5 mm
22:19 14.1 °C 7.9 °C 1014.9 hPa SSO 7.6 km/h 13 km/h 66.3% 0.8 mm
22:24 14.1 °C 7.9 °C 1014.9 hPa SO 7 km/h 11.3 km/h 66.3% 0.8 mm
22:29 14.1 °C 8.3 °C 1014.8 hPa Oeste 6.9 km/h 9.7 km/h 67.9% 0.8 mm
22:34 14.1 °C 8.6 °C 1014.8 hPa OSO 5.4 km/h 8 km/h 69.6% 1.0 mm
22:39 13.9 °C 8.6 °C 1014.8 hPa SO 5 km/h 8 km/h 70.4% 1.0 mm
22:44 13.8 °C 8.6 °C 1014.7 hPa SSO 4.7 km/h 11.1 km/h 70.7% 1.0 mm
22:49 13.8 °C 8.5 °C 1014.7 hPa SSO 4.7 km/h 11.3 km/h 70.3% 1.0 mm
22:54 13.8 °C 8.5 °C 1014.7 hPa Oeste 5.6 km/h 11.3 km/h 70.1% 0.5 mm
22:59 13.8 °C 8.7 °C 1014.3 hPa Oeste 5.8 km/h 8 km/h 71.4% 0.5 mm
23:04 13.8 °C 8.9 °C 1014.3 hPa Oeste 4.1 km/h 8.4 km/h 72.5% 0.5 mm
23:09 13.7 °C 8.9 °C 1014.3 hPa OSO 3.9 km/h 9.5 km/h 73% 0.5 mm
23:14 13.5 °C 8.9 °C 1014.1 hPa OSO 4.8 km/h 9.7 km/h 73.8% 0.5 mm
23:19 13.4 °C 8.8 °C 1014.1 hPa ONO 5 km/h 9.7 km/h 74% 0.5 mm
23:24 13.4 °C 9 °C 1014.1 hPa NO 4.1 km/h 8 km/h 75% 0.2 mm
23:29 13.3 °C 9.2 °C 1013.9 hPa NO 3.9 km/h 6.4 km/h 76.2% 0.2 mm
23:34 13.2 °C 9.3 °C 1013.9 hPa NNO 3.3 km/h 5.8 km/h 77.6% 0.2 mm
23:39 13 °C 9.4 °C 1013.9 hPa Este 3.2 km/h 6.4 km/h 78.4% 0.0 mm
23:44 12.9 °C 9.4 °C 1013.8 hPa Este 2.4 km/h 5.8 km/h 79% 0.0 mm
23:49 12.9 °C 9.2 °C 1013.8 hPa ONO 2.2 km/h 9.3 km/h 78.4% 0.0 mm
23:54 12.9 °C 9.2 °C 1013.8 hPa NO 3 km/h 9.7 km/h 78% 0.0 mm
23:59 12.9 °C 9.2 °C 1013.6 hPa Oeste 3.2 km/h 9.7 km/h 78% 0.0 mm
Murcia-Puente Tocinos, Espa?a
Compliments of Weather Underground - 3.25 mb

La estación de MeteoMurcia.com, publica sus datos en los siguientes proyectos:

Weather Underground PWS IMURCIAP2 Meteoclimatic www.awekas.at

W3Counter
Web Analytics